Enter the Airport ICAO Code

Search by Airport or City

Current Weather

MMMY | General Mariano Escobedo International Airport

Monterrey, Nuevo León, Mexico

Last Update 58 Minutes Ago

Clear Sky

Temperature of 25 ºC

Calm Wind

Temperature

25 ºC

Dew Point Temperature

20 ºC

Relative Humidity

73.94 %

Wind Direction

None

Wind Velocity

0 km/h (0 kt)

Gusts

None

Visibility

Greater than 10 Miles

Sea Level Pressure

29.90 inHg (Inches of Mercury)

Layers of Clouds

None

METAR MMMY 130942Z 00000KT 10SM SKC 25/20 A2990

Weather Forecast

MMMY | General Mariano Escobedo International Airport

Monterrey, Nuevo León, Mexico

Forecast valid for the next 31 Hours

In 1 hour it is expected the begining of:

Clear Sky

Light to Moderate Winds from SouthEast

In 7 hours it is expected the begining of:

Moderate Winds from SouthEast

In 16 hours it is expected the begining of:

Light to Moderate Winds from SouthEast

In 25 hours it is expected the begining of 3 hours with intermittent periods of:

Mostly Cloudy Sky

Maximum Temperature

39 ºC in 10 Hours

Minimum Temperature

25 ºC in 1 Hour

TAF MMMY 131013Z 1312/1418 14005KT P6SM SKC TX39/1321Z TN25/1312Z FM131800 14010KT P6SM SKC FM140300 14005KT P6SM SKC TEMPO 1412/1415 BKN010